createdAt,value
2024-04-11T00:00:25.030Z,65.01
2024-04-11T00:01:25.331Z,64.96
2024-04-11T00:02:25.119Z,64.94
2024-04-11T00:03:25.046Z,65.24
2024-04-11T00:04:25.023Z,65.14
2024-04-11T00:05:24.924Z,65.56
2024-04-11T00:06:24.815Z,65.68
2024-04-11T00:07:24.755Z,65.28
2024-04-11T00:08:24.738Z,65.66
2024-04-11T00:09:24.693Z,65.63
2024-04-11T00:10:24.639Z,65.50
2024-04-11T00:11:24.667Z,65.24
2024-04-11T00:12:24.688Z,65.05
2024-04-11T00:13:24.631Z,64.92
2024-04-11T00:14:24.714Z,65.13
2024-04-11T00:15:24.644Z,65.48
2024-04-11T00:16:24.705Z,65.38
2024-04-11T00:17:24.757Z,65.80
2024-04-11T00:18:24.970Z,65.95
2024-04-11T00:19:24.703Z,66.01
2024-04-11T00:20:24.754Z,65.66
2024-04-11T00:21:24.684Z,65.68
2024-04-11T00:22:24.727Z,65.38
2024-04-11T00:23:24.821Z,65.31
2024-04-11T00:24:24.729Z,65.31
2024-04-11T00:25:24.702Z,65.39
2024-04-11T00:26:24.750Z,65.34
2024-04-11T00:27:24.671Z,65.30
2024-04-11T00:28:24.647Z,66.09
2024-04-11T00:29:24.703Z,65.72
2024-04-11T00:30:24.583Z,65.43
2024-04-11T00:31:24.511Z,66.00
2024-04-11T00:32:24.772Z,66.20
2024-04-11T00:33:24.693Z,65.85
2024-04-11T00:34:24.560Z,65.44
2024-04-11T00:35:24.390Z,65.41
2024-04-11T00:36:24.298Z,65.36
2024-04-11T00:37:24.247Z,65.49
2024-04-11T00:38:24.230Z,65.15
2024-04-11T00:39:24.173Z,65.04
2024-04-11T00:40:24.131Z,64.91
2024-04-11T00:41:24.142Z,65.18
2024-04-11T00:42:24.053Z,64.91
2024-04-11T00:43:24.011Z,64.92
2024-04-11T00:44:24.000Z,64.57
2024-04-11T00:46:26.813Z,64.80
2024-04-11T00:47:27.941Z,64.66
2024-04-11T00:48:27.937Z,64.70
2024-04-11T00:49:27.884Z,64.71
2024-04-11T00:50:27.877Z,64.81
2024-04-11T00:51:27.835Z,64.79
2024-04-11T00:52:27.838Z,64.35
2024-04-11T00:53:27.930Z,64.95
2024-04-11T00:54:27.868Z,64.63
2024-04-11T00:55:27.905Z,64.51
2024-04-11T00:56:27.895Z,64.30
2024-04-11T00:57:27.928Z,64.19
2024-04-11T00:58:27.879Z,64.12
2024-04-11T00:59:27.930Z,64.00
2024-04-11T01:00:27.892Z,64.00
2024-04-11T01:01:27.884Z,64.86
2024-04-11T01:02:27.967Z,65.17
2024-04-11T01:03:28.144Z,64.69
2024-04-11T01:04:27.908Z,65.38
2024-04-11T01:05:27.917Z,65.49
2024-04-11T01:06:27.861Z,65.03
2024-04-11T01:07:27.868Z,64.64
2024-04-11T01:08:27.906Z,64.36
2024-04-11T01:09:27.871Z,64.13
2024-04-11T01:10:27.869Z,64.01
2024-04-11T01:11:27.934Z,63.77
2024-04-11T01:12:27.889Z,63.60
2024-04-11T01:13:27.917Z,63.48
2024-04-11T01:14:27.945Z,63.24
2024-04-11T01:15:27.894Z,63.06
2024-04-11T01:16:27.916Z,62.90
2024-04-11T01:17:28.101Z,63.24
2024-04-11T01:18:27.976Z,63.90
2024-04-11T01:19:27.954Z,63.65
2024-04-11T01:20:27.940Z,63.35
2024-04-11T01:21:27.944Z,63.29
2024-04-11T01:22:27.915Z,63.12
2024-04-11T01:23:27.944Z,62.96
2024-04-11T01:24:27.950Z,62.76
2024-04-11T01:25:27.940Z,62.67
2024-04-11T01:26:27.966Z,62.51
2024-04-11T01:27:27.940Z,62.39
2024-04-11T01:28:27.947Z,62.37
2024-04-11T01:29:27.990Z,62.30
2024-04-11T01:30:27.961Z,62.36
2024-04-11T01:31:27.995Z,62.71
2024-04-11T01:32:28.149Z,62.31
2024-04-11T01:33:28.271Z,62.20
2024-04-11T01:34:28.309Z,62.09
2024-04-11T01:35:28.208Z,62.09
2024-04-11T01:36:28.234Z,62.02
2024-04-11T01:37:28.312Z,62.32
2024-04-11T01:38:28.443Z,62.64
2024-04-11T01:39:28.441Z,62.85
2024-04-11T01:40:28.515Z,62.77
2024-04-11T01:41:28.603Z,62.84
2024-04-11T01:42:28.653Z,62.64
2024-04-11T01:43:28.740Z,62.59
2024-04-11T01:44:28.850Z,62.53
2024-04-11T01:45:28.874Z,62.52
2024-04-11T01:46:29.066Z,61.49
2024-04-11T01:47:29.071Z,61.02
2024-04-11T01:48:29.160Z,59.82
2024-04-11T01:49:29.090Z,59.61
2024-04-11T01:50:29.146Z,60.18
2024-04-11T01:51:29.124Z,59.96
2024-04-11T01:52:29.168Z,59.02
2024-04-11T01:53:29.229Z,59.06
2024-04-11T01:54:29.231Z,59.00
2024-04-11T01:55:29.283Z,58.96
2024-04-11T01:56:29.340Z,58.98
2024-04-11T01:57:29.395Z,59.37
2024-04-11T01:58:29.400Z,59.16
2024-04-11T01:59:29.417Z,59.18
2024-04-11T02:00:29.414Z,59.32
2024-04-11T02:01:29.442Z,59.35
2024-04-11T02:02:29.503Z,59.25
2024-04-11T02:03:29.633Z,59.17
2024-04-11T02:04:29.601Z,59.28
2024-04-11T02:05:29.486Z,59.47
2024-04-11T02:06:29.501Z,59.39
2024-04-11T02:07:29.484Z,59.27
2024-04-11T02:08:29.538Z,59.82
2024-04-11T02:09:29.518Z,59.70
2024-04-11T02:10:29.520Z,59.33
2024-04-11T02:11:29.577Z,59.32
2024-04-11T02:12:29.657Z,59.54
2024-04-11T02:13:29.619Z,59.22
2024-04-11T02:14:29.676Z,59.00
2024-04-11T02:15:29.610Z,59.11
2024-04-11T02:16:29.655Z,58.90
2024-04-11T02:17:29.648Z,58.98
2024-04-11T02:18:29.696Z,58.80
2024-04-11T02:19:29.631Z,59.30
2024-04-11T02:20:29.699Z,58.95
2024-04-11T02:21:29.689Z,59.04
2024-04-11T02:22:29.679Z,58.93
2024-04-11T02:23:29.708Z,58.94
2024-04-11T02:24:29.691Z,58.93
2024-04-11T02:25:29.701Z,58.98
2024-04-11T02:26:29.755Z,59.01
2024-04-11T02:27:29.738Z,59.07
2024-04-11T02:28:29.761Z,59.11
2024-04-11T02:29:29.802Z,59.39
2024-04-11T02:30:29.815Z,59.18
2024-04-11T02:31:29.838Z,58.97
2024-04-11T02:32:29.916Z,58.85
2024-04-11T02:33:30.008Z,58.88
2024-04-11T02:34:30.055Z,58.90
2024-04-11T02:35:29.937Z,59.00
2024-04-11T02:36:29.906Z,58.91
2024-04-11T02:37:29.924Z,59.01
2024-04-11T02:38:29.962Z,59.09
2024-04-11T02:39:29.932Z,59.08
2024-04-11T02:40:29.988Z,59.05
2024-04-11T02:41:30.030Z,58.95
2024-04-11T02:42:30.036Z,58.94
2024-04-11T02:43:30.070Z,58.94
2024-04-11T02:44:30.169Z,58.94
2024-04-11T02:45:30.143Z,58.62
2024-04-11T02:46:30.199Z,58.64
2024-04-11T02:47:30.258Z,58.61
2024-04-11T02:48:30.397Z,58.52
2024-04-11T02:49:30.237Z,58.67
2024-04-11T02:50:30.288Z,58.54
2024-04-11T02:51:30.290Z,58.60
2024-04-11T02:52:30.321Z,58.56
2024-04-11T02:53:30.397Z,58.58
2024-04-11T02:54:30.371Z,58.56
2024-04-11T02:55:30.398Z,58.70
2024-04-11T02:56:30.434Z,58.54
2024-04-11T02:57:30.448Z,58.70
2024-04-11T02:58:30.495Z,58.64
2024-04-11T02:59:30.625Z,58.47
2024-04-11T03:00:30.690Z,58.54
2024-04-11T03:01:30.692Z,58.57
2024-04-11T03:02:31.021Z,58.69
2024-04-11T03:03:30.952Z,58.83
2024-04-11T03:04:31.013Z,58.92
2024-04-11T03:05:31.098Z,59.15
2024-04-11T03:06:31.037Z,59.02
2024-04-11T03:07:31.094Z,58.99
2024-04-11T03:08:31.163Z,59.07
2024-04-11T03:09:31.174Z,58.91
2024-04-11T03:10:31.218Z,58.75
2024-04-11T03:11:31.332Z,58.81
2024-04-11T03:12:31.300Z,58.79
2024-04-11T03:13:31.306Z,58.77
2024-04-11T03:14:31.376Z,58.96
2024-04-11T03:15:31.365Z,59.06
2024-04-11T03:16:31.701Z,59.01
2024-04-11T03:17:31.465Z,59.10
2024-04-11T03:18:33.593Z,58.89
2024-04-11T03:19:31.404Z,58.87
2024-04-11T03:20:31.413Z,59.07
2024-04-11T03:21:31.404Z,59.00
2024-04-11T03:22:31.417Z,59.38
2024-04-11T03:23:31.463Z,59.30
2024-04-11T03:24:31.420Z,59.21
2024-04-11T03:25:31.427Z,59.16
2024-04-11T03:26:31.494Z,59.20
2024-04-11T03:27:31.441Z,59.41
2024-04-11T03:28:31.456Z,59.38
2024-04-11T03:29:31.489Z,59.94
2024-04-11T03:30:31.491Z,59.85
2024-04-11T03:31:31.470Z,59.78
2024-04-11T03:32:31.659Z,59.76
2024-04-11T03:33:31.658Z,59.68
2024-04-11T03:34:31.529Z,59.73
2024-04-11T03:35:31.499Z,59.63
2024-04-11T03:36:31.481Z,59.72
2024-04-11T03:37:31.465Z,59.81
2024-04-11T03:38:31.507Z,59.77
2024-04-11T03:39:31.463Z,60.63
2024-04-11T03:40:31.462Z,60.38
2024-04-11T03:41:31.492Z,60.12
2024-04-11T03:42:31.478Z,60.32
2024-04-11T03:43:31.570Z,60.12
2024-04-11T03:44:31.492Z,59.89
2024-04-11T03:45:31.480Z,59.75
2024-04-11T03:46:31.467Z,60.69
2024-04-11T03:47:31.588Z,60.29
2024-04-11T03:48:31.589Z,60.22
2024-04-11T03:49:31.858Z,60.19
2024-04-11T03:50:31.524Z,60.08
2024-04-11T03:51:31.913Z,60.28
2024-04-11T03:52:31.495Z,60.13
2024-04-11T03:53:31.519Z,59.92
2024-04-11T03:54:31.520Z,59.89
2024-04-11T03:55:31.535Z,59.83
2024-04-11T03:56:31.670Z,59.54
2024-04-11T03:57:31.606Z,59.75
2024-04-11T03:58:31.601Z,59.96
2024-04-11T03:59:31.646Z,59.72
2024-04-11T04:00:31.623Z,59.80
2024-04-11T04:01:31.855Z,59.49
2024-04-11T04:02:31.773Z,59.21
2024-04-11T04:03:31.861Z,59.24
2024-04-11T04:04:31.795Z,59.11
2024-04-11T04:05:31.768Z,59.09
2024-04-11T04:06:31.730Z,59.12
2024-04-11T04:07:32.867Z,59.16
2024-04-11T04:08:31.813Z,59.42
2024-04-11T04:09:31.743Z,60.75
2024-04-11T04:10:31.743Z,59.74
2024-04-11T04:11:31.909Z,59.84
2024-04-11T04:12:31.888Z,59.77
2024-04-11T04:13:31.729Z,60.39
2024-04-11T04:14:33.306Z,59.83
2024-04-11T04:15:31.727Z,59.38
2024-04-11T04:16:31.882Z,59.10
2024-04-11T04:17:31.843Z,58.93
2024-04-11T04:18:31.840Z,58.84
2024-04-11T04:19:31.746Z,59.05
2024-04-11T04:20:31.782Z,59.00
2024-04-11T04:21:31.731Z,58.73
2024-04-11T04:22:31.757Z,58.73
2024-04-11T04:23:31.799Z,58.71
2024-04-11T04:24:31.741Z,58.55
2024-04-11T04:25:31.740Z,58.33
2024-04-11T04:26:31.868Z,58.25
2024-04-11T04:27:31.767Z,58.08
2024-04-11T04:28:31.805Z,57.80
2024-04-11T04:29:31.795Z,57.86
2024-04-11T04:30:31.774Z,57.91
2024-04-11T04:31:31.756Z,58.09
2024-04-11T04:32:31.904Z,58.13
2024-04-11T04:33:32.050Z,58.15
2024-04-11T04:34:31.896Z,57.94
2024-04-11T04:35:31.790Z,57.77
2024-04-11T04:36:31.768Z,57.76
2024-04-11T04:37:39.110Z,59.13
2024-04-11T04:38:40.178Z,59.52
2024-04-11T04:39:40.093Z,58.42
2024-04-11T04:40:40.183Z,58.28
2024-04-11T04:41:40.120Z,59.46
2024-04-11T04:42:40.112Z,59.06
2024-04-11T04:43:40.104Z,58.61
2024-04-11T04:44:40.147Z,58.87
2024-04-11T04:45:40.144Z,58.34
2024-04-11T04:46:40.120Z,58.22
2024-04-11T04:47:40.339Z,58.03
2024-04-11T04:48:40.380Z,57.90
2024-04-11T04:49:40.143Z,57.95
2024-04-11T04:50:42.028Z,57.63
2024-04-11T04:51:40.144Z,57.95
2024-04-11T04:52:40.141Z,57.91
2024-04-11T04:53:40.291Z,57.83
2024-04-11T04:54:40.147Z,57.66
2024-04-11T04:55:40.168Z,57.29
2024-04-11T04:56:40.187Z,57.54
2024-04-11T04:57:40.162Z,57.44
2024-04-11T04:58:40.173Z,57.45
2024-04-11T04:59:40.190Z,57.28
2024-04-11T05:00:40.271Z,57.10
2024-04-11T05:01:40.217Z,57.23
2024-04-11T05:02:40.325Z,57.22
2024-04-11T05:03:40.549Z,56.94
2024-04-11T05:04:40.263Z,57.09
2024-04-11T05:05:40.328Z,57.46
2024-04-11T05:06:40.261Z,58.04
2024-04-11T05:07:40.267Z,57.78
2024-04-11T05:08:40.282Z,57.69
2024-04-11T05:09:40.296Z,57.73
2024-04-11T05:10:40.330Z,57.71
2024-04-11T05:11:40.490Z,57.79
2024-04-11T05:12:40.398Z,57.62
2024-04-11T05:13:40.334Z,57.85
2024-04-11T05:14:40.488Z,57.43
2024-04-11T05:15:40.386Z,57.42
2024-04-11T05:16:40.403Z,57.54
2024-04-11T05:17:40.439Z,57.60
2024-04-11T05:18:40.437Z,57.59
2024-04-11T05:19:40.365Z,57.60
2024-04-11T05:20:40.395Z,57.41
2024-04-11T05:21:40.397Z,57.21
2024-04-11T05:22:40.389Z,57.47
2024-04-11T05:23:40.413Z,57.60
2024-04-11T05:24:40.419Z,57.65
2024-04-11T05:25:40.430Z,57.61
2024-04-11T05:26:40.469Z,57.45
2024-04-11T05:27:40.445Z,57.85
2024-04-11T05:28:41.525Z,57.59
2024-04-11T05:29:40.474Z,57.69
2024-04-11T05:30:40.450Z,57.64
2024-04-11T05:31:40.461Z,57.87
2024-04-11T05:32:40.551Z,57.43
2024-04-11T05:33:40.740Z,57.59
2024-04-11T05:34:40.616Z,58.32
2024-04-11T05:35:40.524Z,57.41
2024-04-11T05:36:40.470Z,57.20
2024-04-11T05:37:40.498Z,57.39
2024-04-11T05:38:40.504Z,57.39
2024-04-11T05:39:40.745Z,57.41
2024-04-11T05:40:40.564Z,58.05
2024-04-11T05:41:40.602Z,57.89
2024-04-11T05:42:40.602Z,57.03
2024-04-11T05:43:40.690Z,57.18
2024-04-11T05:44:40.767Z,56.90
2024-04-11T05:45:40.816Z,57.00
2024-04-11T05:46:40.925Z,57.23
2024-04-11T05:47:41.379Z,57.20
2024-04-11T05:48:41.020Z,56.66
2024-04-11T05:49:41.051Z,56.32
2024-04-11T05:50:41.131Z,56.45
2024-04-11T05:51:41.138Z,56.44
2024-04-11T05:52:41.167Z,56.46
2024-04-11T05:53:41.789Z,56.39
2024-04-11T05:54:41.272Z,56.34
2024-04-11T05:55:41.315Z,56.31
2024-04-11T05:56:41.423Z,56.35
2024-04-11T05:57:41.739Z,56.29
2024-04-11T05:58:41.462Z,56.16
2024-04-11T05:59:41.801Z,57.59
2024-04-11T06:00:42.078Z,57.83
2024-04-11T06:01:41.591Z,56.60
2024-04-11T06:02:41.680Z,56.50
2024-04-11T06:03:41.805Z,56.44
2024-04-11T06:04:41.745Z,56.30
2024-04-11T06:05:41.820Z,56.29
2024-04-11T06:06:44.945Z,56.27
2024-04-11T06:07:41.713Z,56.36
2024-04-11T06:08:41.704Z,56.10
2024-04-11T06:09:41.670Z,55.83
2024-04-11T06:10:41.670Z,55.83
2024-04-11T06:11:41.828Z,55.67
2024-04-11T06:12:41.830Z,55.38
2024-04-11T06:13:41.611Z,55.18
2024-04-11T06:14:41.767Z,55.13
2024-04-11T06:15:41.614Z,54.98
2024-04-11T06:16:41.653Z,54.94
2024-04-11T06:17:41.647Z,54.55
2024-04-11T06:18:42.706Z,54.01
2024-04-11T06:19:41.678Z,53.85
2024-04-11T06:20:41.829Z,53.48
2024-04-11T06:21:41.612Z,53.44
2024-04-11T06:22:41.628Z,53.41
2024-04-11T06:23:41.797Z,53.30
2024-04-11T06:24:41.746Z,52.89
2024-04-11T06:25:41.662Z,52.91
2024-04-11T06:26:41.748Z,53.19
2024-04-11T06:27:41.699Z,53.31
2024-04-11T06:28:42.020Z,52.90
2024-04-11T06:29:41.850Z,52.71
2024-04-11T06:31:41.810Z,52.80
2024-04-11T06:32:43.229Z,52.92
2024-04-11T06:33:42.522Z,53.22
2024-04-11T06:34:42.057Z,53.71
2024-04-11T06:35:41.793Z,53.32
2024-04-11T06:36:42.151Z,53.00
2024-04-11T06:37:41.768Z,52.90
2024-04-11T06:38:41.922Z,53.33
2024-04-11T06:39:41.826Z,53.11
2024-04-11T06:40:41.814Z,52.44
2024-04-11T06:41:41.767Z,52.18
2024-04-11T06:42:41.775Z,52.08
2024-04-11T06:43:41.799Z,51.88
2024-04-11T06:44:42.284Z,52.00
2024-04-11T06:45:41.776Z,52.00
2024-04-11T06:46:41.764Z,52.22
2024-04-11T06:47:48.052Z,52.20
2024-04-11T06:48:41.885Z,51.62
2024-04-11T06:49:44.536Z,51.86
2024-04-11T06:50:41.767Z,51.80
2024-04-11T06:51:41.685Z,51.68
2024-04-11T06:52:41.664Z,51.71
2024-04-11T06:53:41.774Z,51.53
2024-04-11T06:54:41.762Z,51.14
2024-04-11T06:55:41.614Z,51.56
2024-04-11T06:56:41.648Z,50.80
2024-04-11T06:57:41.562Z,51.17
2024-04-11T06:58:41.569Z,51.39
2024-04-11T06:59:41.830Z,50.79
2024-04-11T07:00:41.534Z,50.72
2024-04-11T07:01:43.807Z,50.38
2024-04-11T07:02:41.646Z,49.88
2024-04-11T07:03:42.205Z,49.67
2024-04-11T07:04:41.868Z,49.66
2024-04-11T07:05:41.492Z,49.99
2024-04-11T07:06:41.657Z,50.05
2024-04-11T07:07:41.588Z,50.19
2024-04-11T07:08:41.592Z,49.76
2024-04-11T07:09:41.583Z,50.03
2024-04-11T07:10:41.566Z,49.46
2024-04-11T07:11:41.820Z,49.62
2024-04-11T07:12:41.607Z,49.51
2024-04-11T07:13:41.533Z,49.54
2024-04-11T07:14:41.822Z,49.23
2024-04-11T07:15:41.534Z,48.67
2024-04-11T07:16:41.889Z,48.76
2024-04-11T07:17:41.553Z,48.56
2024-04-11T07:18:41.486Z,48.88
2024-04-11T07:19:41.496Z,48.46
2024-04-11T07:20:41.586Z,48.88
2024-04-11T07:21:41.464Z,49.55
2024-04-11T07:22:41.410Z,49.04
2024-04-11T07:23:41.444Z,49.01
2024-04-11T07:24:41.778Z,49.05
2024-04-11T07:25:41.403Z,49.38
2024-04-11T07:26:41.446Z,48.46
2024-04-11T07:27:41.427Z,47.93
2024-04-11T07:28:41.416Z,48.81
2024-04-11T07:29:41.417Z,48.97
2024-04-11T07:30:41.771Z,48.76
2024-04-11T07:31:41.815Z,48.14
2024-04-11T07:32:41.804Z,48.08
2024-04-11T07:33:41.795Z,47.91
2024-04-11T07:34:41.761Z,47.63
2024-04-11T07:35:41.551Z,47.80
2024-04-11T07:36:42.156Z,47.26
2024-04-11T07:37:41.644Z,47.02
2024-04-11T07:38:41.663Z,46.45
2024-04-11T07:39:41.586Z,46.36
2024-04-11T07:40:41.562Z,46.25
2024-04-11T07:41:41.661Z,46.25
2024-04-11T07:42:41.633Z,46.64
2024-04-11T07:43:41.633Z,46.03
2024-04-11T07:44:41.824Z,46.84
2024-04-11T07:45:41.694Z,46.38
2024-04-11T07:46:47.468Z,46.87
2024-04-11T07:47:50.219Z,46.26
2024-04-11T07:48:41.788Z,46.91
2024-04-11T07:49:42.252Z,47.13
2024-04-11T07:50:41.623Z,47.81
2024-04-11T07:51:41.552Z,47.16
2024-04-11T07:52:41.538Z,46.93
2024-04-11T07:53:41.545Z,47.04
2024-04-11T07:54:47.179Z,47.29
2024-04-11T07:55:41.788Z,47.05
2024-04-11T07:56:41.461Z,47.38
2024-04-11T07:57:41.414Z,46.79
2024-04-11T07:58:41.279Z,46.99
2024-04-11T07:59:42.314Z,46.46
2024-04-11T08:00:41.349Z,45.88
2024-04-11T08:01:41.170Z,46.09
2024-04-11T08:02:41.150Z,45.91
2024-04-11T08:03:41.091Z,46.13
2024-04-11T08:04:41.120Z,46.18
2024-04-11T08:05:41.303Z,46.33
2024-04-11T08:06:41.042Z,46.17
2024-04-11T08:07:40.977Z,46.07
2024-04-11T08:08:40.983Z,45.99
2024-04-11T08:09:41.002Z,45.85
2024-04-11T08:10:41.035Z,46.61
2024-04-11T08:11:41.103Z,46.07
2024-04-11T08:12:40.992Z,45.46
2024-04-11T08:13:43.447Z,46.11
2024-04-11T08:14:41.099Z,45.82
2024-04-11T08:15:40.928Z,44.89
2024-04-11T08:16:40.983Z,44.37
2024-04-11T08:17:40.962Z,44.53
2024-04-11T08:18:40.858Z,44.56
2024-04-11T08:19:47.966Z,45.51
2024-04-11T08:20:40.698Z,43.43
2024-04-11T08:21:40.659Z,43.73
2024-04-11T08:22:40.563Z,44.13
2024-04-11T08:23:40.612Z,43.72
2024-04-11T08:24:40.493Z,44.73
2024-04-11T08:25:40.456Z,45.32
2024-04-11T08:26:40.403Z,44.39
2024-04-11T08:27:40.351Z,44.28
2024-04-11T08:28:40.288Z,43.32
2024-04-11T08:29:40.271Z,43.14
2024-04-11T08:30:40.196Z,43.44
2024-04-11T08:31:40.287Z,42.36
2024-04-11T08:32:40.148Z,42.58
2024-04-11T08:33:40.160Z,42.09
2024-04-11T08:34:40.029Z,41.86
2024-04-11T08:35:40.019Z,41.95
2024-04-11T08:36:39.912Z,41.14
2024-04-11T08:37:39.843Z,40.40
2024-04-11T08:38:39.816Z,40.19
2024-04-11T08:39:39.759Z,39.60
2024-04-11T08:40:39.706Z,39.62
2024-04-11T08:41:39.894Z,39.89
2024-04-11T08:42:39.584Z,39.70
2024-04-11T08:43:42.729Z,39.65
2024-04-11T08:44:39.875Z,39.48
2024-04-11T08:45:39.455Z,39.56
2024-04-11T08:46:39.415Z,40.12
2024-04-11T08:47:39.345Z,39.92
2024-04-11T08:48:39.619Z,40.00
2024-04-11T08:49:39.488Z,39.74
2024-04-11T08:50:39.328Z,40.27
2024-04-11T08:51:41.983Z,40.07
2024-04-11T08:52:38.967Z,40.12
2024-04-11T08:53:51.535Z,40.79
2024-04-11T08:54:39.059Z,40.87
2024-04-11T08:55:38.783Z,40.88
2024-04-11T08:56:38.860Z,41.02
2024-04-11T08:57:38.657Z,41.45
2024-04-11T08:58:38.589Z,40.91
2024-04-11T08:59:38.679Z,40.44
2024-04-11T09:00:38.480Z,41.07
2024-04-11T09:01:38.482Z,41.55
2024-04-11T09:02:38.458Z,41.07
2024-04-11T09:03:38.405Z,40.34
2024-04-11T09:04:38.261Z,40.49
2024-04-11T09:05:38.255Z,40.68
2024-04-11T09:06:38.240Z,40.64
2024-04-11T09:07:39.226Z,40.55
2024-04-11T09:08:38.449Z,40.86
2024-04-11T09:09:37.977Z,42.49
2024-04-11T09:10:37.911Z,41.68
2024-04-11T09:11:38.013Z,41.17
2024-04-11T09:12:37.834Z,41.42
2024-04-11T09:13:37.838Z,41.50
2024-04-11T09:14:37.860Z,41.28
2024-04-11T09:15:37.869Z,40.72
2024-04-11T09:16:37.890Z,40.73
2024-04-11T09:17:37.933Z,40.37
2024-04-11T09:18:37.911Z,39.84
2024-04-11T09:19:37.787Z,40.10
2024-04-11T09:20:37.857Z,40.30
2024-04-11T09:21:38.308Z,39.77
2024-04-11T09:22:37.804Z,39.73
2024-04-11T09:23:37.797Z,40.68
2024-04-11T09:24:37.805Z,41.87
2024-04-11T09:25:37.795Z,41.39
2024-04-11T09:26:37.835Z,41.17
2024-04-11T09:27:37.799Z,40.99
2024-04-11T09:28:37.948Z,40.60
2024-04-11T09:29:37.830Z,40.39
2024-04-11T09:30:37.736Z,40.03
2024-04-11T09:31:38.464Z,40.23
2024-04-11T09:32:37.808Z,40.25
2024-04-11T09:33:37.815Z,39.99
2024-04-11T09:34:39.719Z,40.08
2024-04-11T09:35:37.697Z,40.91
2024-04-11T09:36:37.631Z,40.92
2024-04-11T09:37:37.542Z,40.41
2024-04-11T09:38:37.552Z,40.72
2024-04-11T09:39:37.801Z,40.73
2024-04-11T09:40:37.362Z,41.49
2024-04-11T09:41:38.049Z,41.01
2024-04-11T09:42:37.351Z,40.72
2024-04-11T09:43:37.169Z,40.59
2024-04-11T09:44:37.116Z,41.06
2024-04-11T09:45:37.043Z,41.91
2024-04-11T09:46:37.006Z,41.57
2024-04-11T09:47:37.374Z,40.94
2024-04-11T09:48:37.069Z,41.11
2024-04-11T09:49:36.821Z,41.16
2024-04-11T09:50:36.773Z,41.17
2024-04-11T09:51:36.702Z,40.89
2024-04-11T09:52:36.624Z,41.43
2024-04-11T09:53:36.632Z,42.35
2024-04-11T09:54:36.623Z,41.81
2024-04-11T09:55:36.550Z,41.56
2024-04-11T09:56:36.598Z,41.30
2024-04-11T09:57:36.539Z,40.03
2024-04-11T09:58:36.540Z,40.60
2024-04-11T09:59:36.833Z,40.65
2024-04-11T10:00:36.554Z,41.04
2024-04-11T10:01:36.534Z,39.44
2024-04-11T10:02:36.612Z,39.35
2024-04-11T10:03:36.626Z,39.43
2024-04-11T10:04:36.801Z,40.46
2024-04-11T10:05:36.535Z,40.16
2024-04-11T10:06:36.435Z,40.58
2024-04-11T10:07:36.373Z,41.23
2024-04-11T10:08:36.362Z,41.48
2024-04-11T10:09:36.301Z,40.85
2024-04-11T10:10:36.256Z,41.03
2024-04-11T10:11:36.312Z,41.51
2024-04-11T10:12:36.225Z,40.32
2024-04-11T10:13:36.153Z,40.17
2024-04-11T10:14:36.144Z,40.56
2024-04-11T10:15:36.658Z,40.17
2024-04-11T10:16:36.080Z,39.90
2024-04-11T10:17:36.156Z,39.75
2024-04-11T10:18:36.875Z,39.89
2024-04-11T10:19:36.173Z,40.17
2024-04-11T10:20:36.072Z,39.56
2024-04-11T10:21:41.395Z,39.77
2024-04-11T10:22:35.985Z,39.47
2024-04-11T10:23:35.912Z,39.55
2024-04-11T10:24:36.441Z,40.15
2024-04-11T10:25:35.822Z,40.07
2024-04-11T10:26:35.776Z,39.90
2024-04-11T10:27:36.574Z,40.94
2024-04-11T10:28:35.557Z,40.10
2024-04-11T10:29:35.528Z,39.58
2024-04-11T10:30:35.560Z,39.44
2024-04-11T10:31:35.350Z,39.49
2024-04-11T10:32:35.392Z,40.08
2024-04-11T10:33:35.553Z,39.71
2024-04-11T10:34:35.143Z,39.58
2024-04-11T10:35:35.107Z,39.73
2024-04-11T10:36:35.036Z,40.39
2024-04-11T10:37:35.513Z,40.25
2024-04-11T10:38:35.387Z,40.34
2024-04-11T10:39:34.763Z,40.31
2024-04-11T10:40:34.692Z,39.97
2024-04-11T10:41:34.656Z,40.93
2024-04-11T10:42:34.613Z,40.20
2024-04-11T10:43:34.624Z,40.78
2024-04-11T10:44:34.642Z,41.57
2024-04-11T10:45:34.631Z,41.22
2024-04-11T10:46:34.651Z,41.18
2024-04-11T10:47:34.725Z,40.99
2024-04-11T10:48:34.759Z,40.14
2024-04-11T10:49:34.573Z,41.55
2024-04-11T10:50:34.556Z,41.66
2024-04-11T10:51:34.556Z,41.32
2024-04-11T10:52:34.557Z,40.90
2024-04-11T10:53:34.557Z,41.36
2024-04-11T10:54:34.822Z,43.84
2024-04-11T10:55:34.476Z,44.68
2024-04-11T10:56:34.837Z,43.94
2024-04-11T10:57:34.476Z,44.05
2024-04-11T10:58:34.489Z,44.66
2024-04-11T10:59:34.532Z,45.58
2024-04-11T11:00:34.483Z,46.21
2024-04-11T11:01:35.695Z,43.83
2024-04-11T11:02:34.538Z,43.19
2024-04-11T11:03:34.605Z,43.95
2024-04-11T11:04:34.322Z,43.56
2024-04-11T11:05:34.307Z,43.40
2024-04-11T11:06:34.356Z,43.85
2024-04-11T11:07:34.148Z,43.86
2024-04-11T11:08:34.135Z,43.66
2024-04-11T11:09:34.037Z,43.58
2024-04-11T11:10:33.985Z,44.75
2024-04-11T11:11:34.003Z,44.64
2024-04-11T11:12:33.883Z,44.33
2024-04-11T11:13:33.810Z,43.93
2024-04-11T11:14:34.729Z,43.60
2024-04-11T11:15:33.731Z,42.79
2024-04-11T11:16:33.703Z,43.73
2024-04-11T11:17:33.698Z,43.47
2024-04-11T11:18:33.718Z,43.68
2024-04-11T11:19:33.536Z,45.02
2024-04-11T11:20:33.544Z,45.83
2024-04-11T11:21:33.436Z,44.03
2024-04-11T11:22:33.429Z,42.93
2024-04-11T11:23:33.400Z,43.52
2024-04-11T11:24:33.859Z,44.18
2024-04-11T11:25:33.314Z,43.67
2024-04-11T11:26:33.318Z,45.97
2024-04-11T11:27:33.842Z,44.09
2024-04-11T11:28:33.208Z,43.32
2024-04-11T11:29:33.260Z,43.26
2024-04-11T11:30:33.213Z,42.69
2024-04-11T11:31:33.196Z,42.70
2024-04-11T11:32:33.286Z,42.85
2024-04-11T11:33:33.191Z,43.81
2024-04-11T11:34:33.110Z,42.71
2024-04-11T11:35:33.111Z,43.58
2024-04-11T11:36:33.050Z,42.97
2024-04-11T11:37:33.044Z,43.21
2024-04-11T11:38:33.001Z,42.80
2024-04-11T11:39:33.357Z,42.80
2024-04-11T11:40:32.953Z,42.63
2024-04-11T11:41:32.989Z,43.06
2024-04-11T11:42:32.905Z,42.22
2024-04-11T11:43:32.859Z,42.33
2024-04-11T11:44:32.872Z,42.84
2024-04-11T11:45:32.872Z,43.50
2024-04-11T11:46:32.861Z,43.22
2024-04-11T11:47:33.520Z,42.87
2024-04-11T11:48:33.106Z,43.88
2024-04-11T11:49:32.915Z,43.35
2024-04-11T11:50:33.426Z,43.06
2024-04-11T11:51:32.848Z,43.50
2024-04-11T11:52:32.849Z,43.21
2024-04-11T11:53:33.011Z,43.37
2024-04-11T11:54:32.845Z,42.77
2024-04-11T11:55:33.344Z,42.74
2024-04-11T11:56:32.844Z,42.54
2024-04-11T11:57:32.837Z,42.63
2024-04-11T11:58:32.849Z,42.54
2024-04-11T11:59:32.830Z,42.02
2024-04-11T12:00:32.847Z,41.95
2024-04-11T12:01:32.859Z,42.48
2024-04-11T12:02:32.931Z,42.27
2024-04-11T12:03:35.181Z,41.40
2024-04-11T12:04:32.802Z,41.24
2024-04-11T12:05:32.742Z,43.74
2024-04-11T12:06:32.648Z,42.67
2024-04-11T12:07:32.585Z,42.17
2024-04-11T12:08:32.552Z,41.72
2024-04-11T12:09:32.466Z,41.52
2024-04-11T12:10:32.376Z,41.13
2024-04-11T12:11:32.474Z,41.07
2024-04-11T12:12:35.912Z,41.27
2024-04-11T12:13:32.157Z,41.35
2024-04-11T12:14:32.078Z,42.25
2024-04-11T12:15:32.001Z,42.23
2024-04-11T12:16:32.366Z,42.62
2024-04-11T12:17:31.920Z,42.56
2024-04-11T12:18:31.814Z,41.82
2024-04-11T12:19:31.722Z,42.47
2024-04-11T12:20:31.674Z,43.25
2024-04-11T12:21:31.853Z,42.62
2024-04-11T12:22:31.527Z,42.04
2024-04-11T12:23:31.476Z,43.13
2024-04-11T12:24:31.412Z,41.62
2024-04-11T12:25:31.374Z,41.65
2024-04-11T12:26:31.553Z,42.86
2024-04-11T12:27:31.253Z,41.87
2024-04-11T12:28:31.193Z,41.96
2024-04-11T12:29:31.428Z,42.02
2024-04-11T12:30:31.069Z,41.60
2024-04-11T12:31:31.024Z,40.62
2024-04-11T12:32:30.994Z,40.54
2024-04-11T12:33:30.983Z,41.29
2024-04-11T12:34:30.873Z,40.99
2024-04-11T12:35:30.743Z,42.16
2024-04-11T12:36:30.642Z,43.76
2024-04-11T12:37:30.597Z,40.93
2024-04-11T12:38:30.536Z,41.83
2024-04-11T12:39:30.526Z,42.68
2024-04-11T12:40:30.520Z,43.24
2024-04-11T12:41:30.880Z,42.69
2024-04-11T12:42:30.494Z,42.82
2024-04-11T12:43:30.493Z,41.35
2024-04-11T12:44:30.520Z,41.71
2024-04-11T12:45:30.891Z,41.19
2024-04-11T12:46:30.570Z,42.64
2024-04-11T12:47:31.611Z,40.58
2024-04-11T12:48:31.074Z,41.06
2024-04-11T12:49:31.060Z,41.37
2024-04-11T12:50:30.439Z,40.49
2024-04-11T12:51:30.398Z,40.21
2024-04-11T12:52:30.435Z,40.04
2024-04-11T12:53:30.392Z,39.99
2024-04-11T12:54:32.601Z,40.40